• Join FlightAware (Why Join?)
  • Login
  • US Flag 
06:51AM EDT


 

Airport Tracker/Info


-or-


 

Live Flight TrackerFlight Track Log ✈ SKW5455 ✈ 11-05-2013 ✈ KEAU - KORD

Flight Track Log - Related Links

Times and Time Zones

All times are in EDT time to prevent confusion due to time zone crossing. See the SKW5455 flight status page for this flight to view local times or setup timezone preferences in your user account.

Time Position Orientation Groundspeed Altitude Reporting Facility
EDT Latitude Longitude Course Direction KTS MPH feet Rate Location/Type
04:17PM 44.8983 -91.3372 91° East 261 300 7,100  Level Minneapolis Center
04:18PM 44.8328 -91.2708 144° Southeast 278 320 10,000 2,820 Climbing Minneapolis Center
04:19PM 44.5919 -91.0447 136° Southeast  Level FlightAware Approximate
04:19PM 44.7608 -91.1875 141° Southeast 317 365 13,000  Level Minneapolis Center
04:20PM 44.5275 -90.9549 125° Southeast  Level FlightAware Approximate
04:20PM 44.6936 -91.1044 139° Southeast 331 381 15,500  Level Minneapolis Center
04:21PM 44.4787 -90.8794 135° Southeast  Level FlightAware Approximate
04:21PM 44.6136 -91.0108 140° Southeast 359 413 17,800  Level Minneapolis Center
04:22PM 44.5386 -90.9219 140° Southeast 362 417 20,100 2,220 Climbing Minneapolis Center
04:23PM 44.4519 -90.8189 140° Southeast 372 428 22,400 1,920 Climbing Minneapolis Center
04:24PM 44.3697 -90.7231 140° Southeast 382 440 24,100 1,560 Climbing Minneapolis Center
04:25PM 44.2822 -90.6214 140° Southeast 387 445 25,600 1,260 Climbing Minneapolis Center
04:26PM 44.2008 -90.5289 141° Southeast 394 453 26,700 660 Climbing Minneapolis Center
04:27PM 44.1125 -90.4247 140° Southeast 411 473 27,000 120 Climbing Minneapolis Center
04:28PM 44.0136 -90.3131 141° Southeast 447 514 27,000 -540 Level Minneapolis Center
04:29PM 43.8956 -90.1778 140° Southeast 468 539 25,900 -1,260 Descending Minneapolis Center
04:30PM 43.7925 -90.0617 141° Southeast 474 545 24,400 -1,440 Descending Minneapolis Center
04:31PM 43.6908 -89.9461 141° Southeast 474 545 23,000 -840 Descending Minneapolis Center
04:32PM 43.6219 -89.8725 142° Southeast 472 543 23,000  Level Chicago Center
04:33PM 43.5264 -89.7636 140° Southeast 453 521 23,000 -120 Level Chicago Center
04:34PM 43.4131 -89.6369 141° Southeast 451 519 22,800 -1,260 Descending Chicago Center
04:35PM 43.3133 -89.5275 141° Southeast 457 526 20,400 -2,220 Descending Chicago Center
04:36PM 43.2197 -89.4242 141° Southeast 439 505 18,300 -2,040 Descending Chicago Center
04:37PM 43.1247 -89.3347 145° Southeast 419 482 16,300 -1,980 Descending Chicago Center
04:38PM 43.0167 -89.2897 163° South 407 468 14,300 -1,620 Descending Chicago Center
04:39PM 42.9142 -89.2494 164° South 389 448 13,000 -660 Descending Chicago Center
04:40PM 42.7989 -89.2025 163° South 372 428 13,000  Level Chicago Center
04:41PM 42.6975 -89.1628 164° South 378 435 13,000  Level Chicago Center
04:42PM 42.6217 -89.0622 136° Southeast 391 450 13,000 -120 Level Chicago Center
04:43PM 42.5661 -88.9325 120° Southeast 396 456 12,800 -1,020 Descending Chicago Center
04:44PM 42.5131 -88.8142 121° Southeast 373 429 11,000 -1,380 Descending Chicago Center
04:45PM 42.4647 -88.7042 121° Southeast 350 403 10,000 -540 Descending Chicago Center
04:46PM 42.4067 -88.5731 121° Southeast 348 400 10,000  Level Chicago Center
04:47PM 42.3619 -88.4597 118° Southeast 345 397 10,000  Level Chicago Center
04:48PM 42.3125 -88.3406 119° Southeast 354 407 10,000  Level Chicago Center
04:49PM 42.2508 -88.2378 129° Southeast 355 409 10,000 -60 Level Chicago Center
04:50PM 42.1897 -88.1414 131° Southeast 343 395 9,900 -840 Descending Chicago Center
04:51PM 42.1278 -88.0703 140° Southeast 302 348 8,300 -1,500 Descending Chicago Center
04:52PM 42.1000 -87.9833 113° Southeast 305 351 7,100 -660 Descending Chicago TRACON
04:53PM 42.0833 -87.8667 101° East 285 328 7,100 -240 Level Chicago TRACON
04:54PM 42.0833 -87.7667 90° East 255 293 6,600 -1,200 Descending Chicago TRACON
04:55PM 42.0667 -87.7000 109° East 245 282 4,700 -1,320 Descending Chicago TRACON
04:56PM 42.0167 -87.7500 217° Southwest 191 220 4,100 -720 Descending Chicago TRACON